Lakeview AWS, OR

1:04 AM PST on December 04, 2016 (GMT -0800)
Lake County | | Change Station

Elev 4728 ft 42.16 °N, 120.40 °W | Updated 9 minutes ago

Clear
Clear
25 °F
Feels Like 17 °F
N
7
Wind Variable Wind from SE

Today
High -- | Low -- °F
--% Chance of Precip.
Yesterday
High -- | Low -- °F
Precip. -- in
Pressure 30.24 in
Visibility 10.0 miles
Clouds Clear
Windchill 17 °F
Dew Point 19 °F
Humidity 80%
Rainfall 0.00 in
Snow Depth Not available.
7:14 AM 4:29 PM
Waxing Crescent, 21% visible
METAR KLKV 040855Z 13006KT 10SM CLR M04/M07 A3024 RMK AO1 57010
Pressure 30.24 in
Visibility 10.0 miles
Clouds Clear
Windchill 17 °F
Dew Point 19 °F
Humidity 80%
Rainfall 0.00 in
Snow Depth Not available.
7:14 AM 4:29 PM
Waxing Crescent, 21% visible
METAR KLKV 040855Z 13006KT 10SM CLR M04/M07 A3024 RMK AO1 57010

10-Day Weather Forecast

Almanac

Astronomy

Dec. 04, 2016 Rise Set
Actual Time
Civil Twilight
Nautical Twilight
Astronomical Twilight
Moon
Length of Visible Light
Length of Day
Tomorrow will be .
, % of the Moon is Illuminated

Today's Extremes

State Highs State Lows

Community

WunderPhotos

Upload Photos

1,955,587 photos uploaded!

WunderBlog® & News

Nearby

Air Quality

  Air Quality AQ Index Pollutant
Not available.

Snow Depth

Station Depth Elevation

Earthquake Activity

City Distance Mag. Time & Date
Minimum magnitude displayed is 2.5.

Coastal Water Temperatures

Place Temperature

Stations

Nearby Weather Stations

Station Location Temp. Windchill Dew Point Humidity Wind Precip. Elev Updated Type
                   

Watches & Warnings

High Wind Warning, Wind Advisory
Issued: 3:29 PM PST Dec. 3, 2016 – National Weather Service

... High Wind Warning in effect from 1 PM to 7 PM PST Sunday...
... Wind Advisory in effect from 1 PM to 7 PM PST Sunday...

The National Weather Service in Medford has issued a High Wind
Warning... which is in effect from 1 PM to 7 PM PST Sunday. A Wind
Advisory has also been issued. This Wind Advisory is in effect
from 1 PM to 7 PM PST Sunday.

* Winds... west winds 30 to 40 mph with gusts to 50 mph... except
for west winds 35 to 45 mph with gusts to 60 mph in the winter
rim to Summer Lake area.

* Timing... early afternoon into early evening.

* Locations include... far eastern Klamath County... most of Lake
County and the Warners in eastern Modoc. Highways most affected
will be highways 31... 395 and 140 in Oregon with the strongest
winds in the Summer Lake and Paisley areas.

* Impacts... strong west winds will cause hazardous driving
conditions... especially on north-south oriented roads near the
Paisley... Summer Lake areas. Snow will also begin to increase
around mid afternoon in northern portions of lake and Klamath
counties... with reduced visibilities possible at times.

* View the hazard area in detail at
http://weather.Gov/Medford/hazard

Precautionary/preparedness actions...

The strongest winds are expected along Highway 31 between Paisley
and Silver Lake.